Permanente, California
Current Conditions -  °F | °C
As of 5:56 AM on Thursday 23 Oct 2014 (Local Time) from KNUQ Reporting Station
Broken Clouds Broken Clouds  
Wind Chill: 15°   Ceiling: 1300
Heat Index: 15°   Visibility: 10mi
Dew Point: 13°   Wind: 0mph
Humidity: 87%   Direction: NA
Pressure: 30.04"   Gusts: NA
Location:  37.305°N, 122.094°W
Report Text: KNUQ 231256Z AUTO 00000KT 10SM BKN013 15/13 A3004 RMK AO2 SLP175 T01500128 TSNO
Loading
Personal Weather Stations






























Interactive Weather Map
Tropical Storm Tracking
New forecast layout! Learn more

10-Day Weather Forecast

Advertisements
Track Severe Weather on mobile